KUKT/UKT METAR and TAF weather

Enter ICAO airport designator
Station Type Date Time Source
KUKT METAR 2020/02/19 11:15 UTC NOAA

KUKT 191115Z AUTO 00000G10KT 10SM SCT100 SCT120 04/M03 A3017 RMK A01


Station Type Date Time Source
KUKT Decoded METAR 2020/02/19 11:15 UTC NOAA

Quakertown, Quakertown Airport, PA, United States (KUKT) 40-26-06N 075-22-54W
Feb 19, 2020 - 06:15 AM EST / 2020.02.19 1115 UTC
Wind: Calm gusting to 12 MPH (10 KT):0
Visibility: 10 mile(s):0
Sky conditions: partly cloudy
Temperature: 39 F (4 C)
Dew Point: 26 F (-3 C)
Relative Humidity: 60%
Pressure (altimeter): 30.17 in. Hg (1021 hPa)
ob: KUKT 191115Z AUTO 00000G10KT 10SM SCT100 SCT120 04/M03 A3017 RMK A01
cycle: 11

Station Type Date Time Source
KUKT TAF UTC NOAA

Error!

Example: see airport list